sensor_id;sensor_type;location;lat;lon;timestamp;pressure;altitude;pressure_sealevel;temperature;humidity
39405;BME280;25121;51.090;17.038;2023-04-20T00:00:38;100420.00;;;9.11;60.54
39405;BME280;25121;51.090;17.038;2023-04-20T00:02:05;100433.16;;;9.22;60.56
39405;BME280;25121;51.090;17.038;2023-04-20T00:03:27;100429.81;;;9.20;60.67
39405;BME280;25121;51.090;17.038;2023-04-20T00:04:49;100440.34;;;9.21;60.56
39405;BME280;25121;51.090;17.038;2023-04-20T00:06:11;100432.16;;;9.23;60.58
39405;BME280;25121;51.090;17.038;2023-04-20T00:07:35;100437.53;;;9.23;60.35
39405;BME280;25121;51.090;17.038;2023-04-20T00:08:58;100434.16;;;9.21;60.54
39405;BME280;25121;51.090;17.038;2023-04-20T00:10:19;100432.16;;;9.23;60.37
39405;BME280;25121;51.090;17.038;2023-04-20T00:11:41;100430.63;;;9.20;60.54
39405;BME280;25121;51.090;17.038;2023-04-20T00:13:04;100415.00;;;9.16;60.27
39405;BME280;25121;51.090;17.038;2023-04-20T00:14:26;100424.94;;;9.23;60.34
39405;BME280;25121;51.090;17.038;2023-04-20T00:15:51;100423.09;;;9.24;60.54
39405;BME280;25121;51.090;17.038;2023-04-20T00:17:16;100432.00;;;9.24;60.68
39405;BME280;25121;51.090;17.038;2023-04-20T00:18:38;100434.69;;;9.24;60.64
39405;BME280;25121;51.090;17.038;2023-04-20T00:19:59;100427.63;;;9.23;60.57
39405;BME280;25121;51.090;17.038;2023-04-20T00:21:24;100425.97;;;9.22;60.61
39405;BME280;25121;51.090;17.038;2023-04-20T00:22:46;100429.16;;;9.26;60.41
39405;BME280;25121;51.090;17.038;2023-04-20T00:24:09;100435.19;;;9.28;60.60
39405;BME280;25121;51.090;17.038;2023-04-20T00:25:31;100433.34;;;9.28;60.54
39405;BME280;25121;51.090;17.038;2023-04-20T00:26:52;100428.81;;;9.29;60.77
39405;BME280;25121;51.090;17.038;2023-04-20T00:28:17;100428.16;;;9.27;60.59
39405;BME280;25121;51.090;17.038;2023-04-20T00:29:38;100436.38;;;9.25;60.29
39405;BME280;25121;51.090;17.038;2023-04-20T00:31:01;100438.56;;;9.30;60.31
39405;BME280;25121;51.090;17.038;2023-04-20T00:32:25;100437.88;;;9.28;60.25
39405;BME280;25121;51.090;17.038;2023-04-20T00:33:48;100441.59;;;9.27;60.08
39405;BME280;25121;51.090;17.038;2023-04-20T00:35:09;100437.19;;;9.26;60.06
39405;BME280;25121;51.090;17.038;2023-04-20T00:36:31;100439.19;;;9.24;60.04
39405;BME280;25121;51.090;17.038;2023-04-20T00:37:55;100434.16;;;9.21;60.11
39405;BME280;25121;51.090;17.038;2023-04-20T00:39:18;100428.28;;;9.17;60.10
39405;BME280;25121;51.090;17.038;2023-04-20T00:40:44;100431.94;;;9.16;60.41
39405;BME280;25121;51.090;17.038;2023-04-20T00:42:12;100434.78;;;9.15;60.26
39405;BME280;25121;51.090;17.038;2023-04-20T00:43:36;100436.78;;;9.13;60.43
39405;BME280;25121;51.090;17.038;2023-04-20T00:44:59;100442.28;;;9.11;60.44
39405;BME280;25121;51.090;17.038;2023-04-20T00:46:24;100438.78;;;9.11;60.48
39405;BME280;25121;51.090;17.038;2023-04-20T00:47:47;100438.09;;;9.09;60.62
39405;BME280;25121;51.090;17.038;2023-04-20T00:49:10;100425.47;;;9.01;60.46
39405;BME280;25121;51.090;17.038;2023-04-20T00:50:31;100443.63;;;9.07;60.84
39405;BME280;25121;51.090;17.038;2023-04-20T00:51:54;100439.09;;;9.08;60.85
39405;BME280;25121;51.090;17.038;2023-04-20T00:53:18;100426.03;;;9.04;60.90
39405;BME280;25121;51.090;17.038;2023-04-20T00:54:44;100429.53;;;9.05;60.92
39405;BME280;25121;51.090;17.038;2023-04-20T00:56:06;100436.41;;;9.08;60.96
39405;BME280;25121;51.090;17.038;2023-04-20T00:57:28;100439.09;;;9.08;60.91
39405;BME280;25121;51.090;17.038;2023-04-20T00:58:58;100430.38;;;9.05;60.94
39405;BME280;25121;51.090;17.038;2023-04-20T01:00:20;100431.91;;;9.08;60.88
39405;BME280;25121;51.090;17.038;2023-04-20T01:01:45;100425.34;;;9.02;60.87
39405;BME280;25121;51.090;17.038;2023-04-20T01:03:07;100428.84;;;9.03;60.97
39405;BME280;25121;51.090;17.038;2023-04-20T01:04:30;100434.91;;;9.05;60.97
39405;BME280;25121;51.090;17.038;2023-04-20T01:05:54;100431.38;;;9.04;60.86
39405;BME280;25121;51.090;17.038;2023-04-20T01:07:17;100431.53;;;9.03;61.04
39405;BME280;25121;51.090;17.038;2023-04-20T01:08:46;100440.41;;;9.03;61.02
39405;BME280;25121;51.090;17.038;2023-04-20T01:10:09;100431.53;;;9.03;61.26
39405;BME280;25121;51.090;17.038;2023-04-20T01:11:32;100427.63;;;8.97;61.04
39405;BME280;25121;51.090;17.038;2023-04-20T01:12:54;100428.34;;;8.99;60.94
39405;BME280;25121;51.090;17.038;2023-04-20T01:14:17;100429.00;;;9.01;60.80
39405;BME280;25121;51.090;17.038;2023-04-20T01:15:39;100427.63;;;8.97;61.00
39405;BME280;25121;51.090;17.038;2023-04-20T01:17:01;100422.09;;;8.99;60.88
39405;BME280;25121;51.090;17.038;2023-04-20T01:18:25;100423.94;;;8.98;61.29
39405;BME280;25121;51.090;17.038;2023-04-20T01:19:49;100410.19;;;8.93;61.13
39405;BME280;25121;51.090;17.038;2023-04-20T01:21:12;100417.75;;;8.98;61.19
39405;BME280;25121;51.090;17.038;2023-04-20T01:22:42;100411.19;;;8.92;61.31
39405;BME280;25121;51.090;17.038;2023-04-20T01:24:08;100423.44;;;8.95;61.21
39405;BME280;25121;51.090;17.038;2023-04-20T01:25:32;100424.41;;;8.94;61.28
39405;BME280;25121;51.090;17.038;2023-04-20T01:26:59;100412.13;;;8.83;61.32
39405;BME280;25121;51.090;17.038;2023-04-20T01:28:22;100415.31;;;8.87;61.35
39405;BME280;25121;51.090;17.038;2023-04-20T01:29:49;100416.66;;;8.82;61.45
39405;BME280;25121;51.090;17.038;2023-04-20T01:31:11;100428.56;;;8.88;61.55
39405;BME280;25121;51.090;17.038;2023-04-20T01:32:34;100427.72;;;8.88;61.47
39405;BME280;25121;51.090;17.038;2023-04-20T01:33:57;100422.53;;;8.86;61.49
39405;BME280;25121;51.090;17.038;2023-04-20T01:35:19;100410.75;;;8.79;61.55
39405;BME280;25121;51.090;17.038;2023-04-20T01:36:41;100419.84;;;8.86;61.63
39405;BME280;25121;51.090;17.038;2023-04-20T01:38:07;100422.16;;;8.81;61.62
39405;BME280;25121;51.090;17.038;2023-04-20T01:39:33;100417.47;;;8.83;61.58
39405;BME280;25121;51.090;17.038;2023-04-20T01:40:55;100426.53;;;8.82;61.75
39405;BME280;25121;51.090;17.038;2023-04-20T01:42:20;100421.16;;;8.82;61.48
39405;BME280;25121;51.090;17.038;2023-04-20T01:43:42;100414.94;;;8.81;61.68
39405;BME280;25121;51.090;17.038;2023-04-20T01:45:06;100409.75;;;8.80;61.72
39405;BME280;25121;51.090;17.038;2023-04-20T01:46:28;100405.19;;;8.72;61.82
39405;BME280;25121;51.090;17.038;2023-04-20T01:47:55;100410.75;;;8.79;61.82
39405;BME280;25121;51.090;17.038;2023-04-20T01:49:21;100403.34;;;8.73;62.08
39405;BME280;25121;51.090;17.038;2023-04-20T01:50:44;100396.59;;;8.69;61.93
39405;BME280;25121;51.090;17.038;2023-04-20T01:52:09;100409.06;;;8.78;62.17
39405;BME280;25121;51.090;17.038;2023-04-20T01:53:33;100403.72;;;8.78;62.23
39405;BME280;25121;51.090;17.038;2023-04-20T01:54:55;100402.69;;;8.79;62.22
39405;BME280;25121;51.090;17.038;2023-04-20T01:56:17;100410.91;;;8.77;62.21
39405;BME280;25121;51.090;17.038;2023-04-20T01:57:39;100416.09;;;8.79;62.08
39405;BME280;25121;51.090;17.038;2023-04-20T01:59:00;100399.50;;;8.75;62.18
39405;BME280;25121;51.090;17.038;2023-04-20T02:00:23;100394.47;;;8.72;62.14
39405;BME280;25121;51.090;17.038;2023-04-20T02:01:47;100408.06;;;8.79;62.04
39405;BME280;25121;51.090;17.038;2023-04-20T02:03:10;100380.19;;;8.72;62.13
39405;BME280;25121;51.090;17.038;2023-04-20T02:04:32;100401.88;;;8.78;62.28
39405;BME280;25121;51.090;17.038;2023-04-20T02:05:54;100405.38;;;8.79;62.28
39405;BME280;25121;51.090;17.038;2023-04-20T02:07:21;100393.31;;;8.75;62.13
39405;BME280;25121;51.090;17.038;2023-04-20T02:08:48;100392.31;;;8.76;62.20
39405;BME280;25121;51.090;17.038;2023-04-20T02:10:10;100401.72;;;8.80;62.23
39405;BME280;25121;51.090;17.038;2023-04-20T02:11:37;100385.56;;;8.72;62.16
39405;BME280;25121;51.090;17.038;2023-04-20T02:13:00;100390.63;;;8.75;62.10
39405;BME280;25121;51.090;17.038;2023-04-20T02:14:24;100396.50;;;8.78;62.08
39405;BME280;25121;51.090;17.038;2023-04-20T02:15:47;100382.03;;;8.71;62.36
39405;BME280;25121;51.090;17.038;2023-04-20T02:17:09;100398.66;;;8.75;62.13
39405;BME280;25121;51.090;17.038;2023-04-20T02:18:33;100404.69;;;8.77;62.17
39405;BME280;25121;51.090;17.038;2023-04-20T02:19:56;100406.38;;;8.78;62.15
39405;BME280;25121;51.090;17.038;2023-04-20T02:21:20;100406.38;;;8.78;62.23
39405;BME280;25121;51.090;17.038;2023-04-20T02:22:43;100401.63;;;8.72;62.00
39405;BME280;25121;51.090;17.038;2023-04-20T02:24:06;100414.88;;;8.73;62.29
39405;BME280;25121;51.090;17.038;2023-04-20T02:25:29;100410.22;;;8.75;62.17
39405;BME280;25121;51.090;17.038;2023-04-20T02:26:56;100412.91;;;8.75;62.38
39405;BME280;25121;51.090;17.038;2023-04-20T02:28:19;100403.34;;;8.73;62.30
39405;BME280;25121;51.090;17.038;2023-04-20T02:29:42;100394.09;;;8.67;62.50
39405;BME280;25121;51.090;17.038;2023-04-20T02:31:07;100395.63;;;8.70;62.48
39405;BME280;25121;51.090;17.038;2023-04-20T02:32:32;100389.41;;;8.69;62.37
39405;BME280;25121;51.090;17.038;2023-04-20T02:34:23;100386.19;;;8.66;62.40
39405;BME280;25121;51.090;17.038;2023-04-20T02:35:50;100376.09;;;8.59;62.26
39405;BME280;25121;51.090;17.038;2023-04-20T02:37:21;100373.59;;;8.58;62.34
39405;BME280;25121;51.090;17.038;2023-04-20T02:38:54;100391.56;;;8.66;62.29
39405;BME280;25121;51.090;17.038;2023-04-20T02:40:46;100388.28;;;8.54;62.43
39405;BME280;25121;51.090;17.038;2023-04-20T02:42:24;100400.50;;;8.56;62.36
39405;BME280;25121;51.090;17.038;2023-04-20T02:43:50;100386.75;;;8.51;62.55
39405;BME280;25121;51.090;17.038;2023-04-20T02:45:16;100398.53;;;8.58;62.68
39405;BME280;25121;51.090;17.038;2023-04-20T02:46:42;100389.09;;;8.54;62.67
39405;BME280;25121;51.090;17.038;2023-04-20T02:48:24;100390.25;;;8.52;62.65
39405;BME280;25121;51.090;17.038;2023-04-20T02:50:29;100382.84;;;8.46;62.80
39405;BME280;25121;51.090;17.038;2023-04-20T02:52:23;100387.91;;;8.49;62.80
39405;BME280;25121;51.090;17.038;2023-04-20T02:54:27;100384.38;;;8.48;62.91
39405;BME280;25121;51.090;17.038;2023-04-20T02:56:37;100385.44;;;8.55;62.64
39405;BME280;25121;51.090;17.038;2023-04-20T02:58:03;100379.03;;;8.48;62.93
39405;BME280;25121;51.090;17.038;2023-04-20T02:59:46;100383.22;;;8.51;62.90
39405;BME280;25121;51.090;17.038;2023-04-20T03:01:34;100377.03;;;8.50;62.98
39405;BME280;25121;51.090;17.038;2023-04-20T03:03:03;100384.91;;;8.52;63.03
39405;BME280;25121;51.090;17.038;2023-04-20T03:04:26;100392.34;;;8.58;63.17
39405;BME280;25121;51.090;17.038;2023-04-20T03:05:58;100387.66;;;8.60;63.10
39405;BME280;25121;51.090;17.038;2023-04-20T03:07:20;100391.88;;;8.62;63.23
39405;BME280;25121;51.090;17.038;2023-04-20T03:08:42;100393.53;;;8.63;63.02
39405;BME280;25121;51.090;17.038;2023-04-20T03:10:35;100393.53;;;8.63;63.24
39405;BME280;25121;51.090;17.038;2023-04-20T03:12:08;100385.19;;;8.67;63.02
39405;BME280;25121;51.090;17.038;2023-04-20T03:13:49;100391.25;;;8.69;63.01
39405;BME280;25121;51.090;17.038;2023-04-20T03:15:14;100380.84;;;8.66;63.11
39405;BME280;25121;51.090;17.038;2023-04-20T03:16:57;100389.75;;;8.74;63.08
39405;BME280;25121;51.090;17.038;2023-04-20T03:18:19;100384.72;;;8.71;62.93
39405;BME280;25121;51.090;17.038;2023-04-20T03:19:41;100393.97;;;8.77;63.06
39405;BME280;25121;51.090;17.038;2023-04-20T03:21:04;100383.44;;;8.75;62.93
39405;BME280;25121;51.090;17.038;2023-04-20T03:22:26;100387.63;;;8.78;63.04
39405;BME280;25121;51.090;17.038;2023-04-20T03:23:51;100381.06;;;8.72;62.76
39405;BME280;25121;51.090;17.038;2023-04-20T03:25:13;100388.31;;;8.80;62.86
39405;BME280;25121;51.090;17.038;2023-04-20T03:26:44;100383.94;;;8.79;63.00
39405;BME280;25121;51.090;17.038;2023-04-20T03:28:11;100382.59;;;8.75;62.83
39405;BME280;25121;51.090;17.038;2023-04-20T03:29:34;100402.09;;;8.85;62.75
39405;BME280;25121;51.090;17.038;2023-04-20T03:31:27;100390.53;;;8.84;62.82
39405;BME280;25121;51.090;17.038;2023-04-20T03:39:20;100380.75;;;8.75;62.46
39405;BME280;25121;51.090;17.038;2023-04-20T03:40:47;100389.31;;;8.79;62.57
39405;BME280;25121;51.090;17.038;2023-04-20T03:43:14;100409.59;;;8.81;62.59
39405;BME280;25121;51.090;17.038;2023-04-20T03:45:14;100405.38;;;8.79;62.74
39405;BME280;25121;51.090;17.038;2023-04-20T03:54:08;100399.13;;;8.70;62.51
39405;BME280;25121;51.090;17.038;2023-04-20T03:56:33;100397.16;;;8.72;62.07
39405;BME280;25121;51.090;17.038;2023-04-20T03:58:28;100395.44;;;8.71;62.50
39405;BME280;25121;51.090;17.038;2023-04-20T04:00:00;100399.31;;;8.77;62.28
39405;BME280;25121;51.090;17.038;2023-04-20T04:01:44;100393.44;;;8.73;62.47
39405;BME280;25121;51.090;17.038;2023-04-20T04:03:10;100407.78;;;8.82;62.38
39405;BME280;25121;51.090;17.038;2023-04-20T04:04:32;100407.91;;;8.80;62.42
39405;BME280;25121;51.090;17.038;2023-04-20T04:05:59;100404.22;;;8.81;62.76
39405;BME280;25121;51.090;17.038;2023-04-20T04:11:45;100411.66;;;8.88;62.33
39405;BME280;25121;51.090;17.038;2023-04-20T04:11:48;100408.13;;;8.87;62.17
39405;BME280;25121;51.090;17.038;2023-04-20T04:13:45;100414.16;;;8.89;62.14
39405;BME280;25121;51.090;17.038;2023-04-20T04:15:25;100406.13;;;8.89;62.16
39405;BME280;25121;51.090;17.038;2023-04-20T04:17:27;100410.88;;;8.95;62.08
39405;BME280;25121;51.090;17.038;2023-04-20T04:18:51;100406.72;;;9.01;62.24
39405;BME280;25121;51.090;17.038;2023-04-20T04:20:39;100403.88;;;9.02;62.16
39405;BME280;25121;51.090;17.038;2023-04-20T04:22:33;100399.88;;;9.06;61.86
39405;BME280;25121;51.090;17.038;2023-04-20T04:24:26;100396.56;;;9.13;61.76
39405;BME280;25121;51.090;17.038;2023-04-20T04:25:57;100399.47;;;9.19;61.69
39405;BME280;25121;51.090;17.038;2023-04-20T04:27:30;100397.28;;;9.23;61.51
39405;BME280;25121;51.090;17.038;2023-04-20T04:28:59;100391.78;;;9.24;61.35
39405;BME280;25121;51.090;17.038;2023-04-20T04:30:25;100412.25;;;9.34;61.37
39405;BME280;25121;51.090;17.038;2023-04-20T04:32:07;100406.38;;;9.30;61.55
39405;BME280;25121;51.090;17.038;2023-04-20T06:02:11;100440.09;;;10.18;59.76
39405;BME280;25121;51.090;17.038;2023-04-20T06:04:01;100452.22;;;10.22;59.59
39405;BME280;25121;51.090;17.038;2023-04-20T06:05:44;100465.16;;;10.26;59.96
39405;BME280;25121;51.090;17.038;2023-04-20T06:07:36;100458.41;;;10.22;60.13
39405;BME280;25121;51.090;17.038;2023-04-20T06:11:26;100452.53;;;10.19;60.11
39405;BME280;25121;51.090;17.038;2023-04-20T06:13:24;100470.53;;;10.26;60.22
39405;BME280;25121;51.090;17.038;2023-04-20T06:14:47;100463.28;;;10.19;60.04
39405;BME280;25121;51.090;17.038;2023-04-20T06:17:04;100468.00;;;10.25;60.16
39405;BME280;25121;51.090;17.038;2023-04-20T06:18:47;100459.44;;;10.21;60.25
39405;BME280;25121;51.090;17.038;2023-04-20T06:20:51;100458.91;;;10.26;60.30
39405;BME280;25121;51.090;17.038;2023-04-20T06:24:22;100466.88;;;10.35;60.24
39405;BME280;25121;51.090;17.038;2023-04-20T06:26:06;100462.53;;;10.43;60.21
39405;BME280;25121;51.090;17.038;2023-04-20T06:27:45;100462.19;;;10.46;60.13
39405;BME280;25121;51.090;17.038;2023-04-20T06:30:03;100474.63;;;10.63;60.11
39405;BME280;25121;51.090;17.038;2023-04-20T06:31:32;100460.69;;;10.60;60.01
39405;BME280;25121;51.090;17.038;2023-04-20T06:35:15;100479.53;;;10.76;60.16
39405;BME280;25121;51.090;17.038;2023-04-20T06:37:30;100476.16;;;10.74;60.10
39405;BME280;25121;51.090;17.038;2023-04-20T06:39:09;100473.31;;;10.75;60.12
39405;BME280;25121;51.090;17.038;2023-04-20T06:41:06;100473.00;;;10.78;60.09
39405;BME280;25121;51.090;17.038;2023-04-20T06:42:38;100484.75;;;10.94;60.05
39405;BME280;25121;51.090;17.038;2023-04-20T06:44:28;100479.88;;;10.97;59.93
39405;BME280;25121;51.090;17.038;2023-04-20T06:46:12;100478.19;;;11.05;60.00
39405;BME280;25121;51.090;17.038;2023-04-20T06:47:37;100481.88;;;11.12;59.97
39405;BME280;25121;51.090;17.038;2023-04-20T06:49:25;100478.00;;;11.14;59.73
39405;BME280;25121;51.090;17.038;2023-04-20T06:51:07;100483.72;;;11.19;59.79
39405;BME280;25121;51.090;17.038;2023-04-20T06:52:32;100478.00;;;11.31;59.79
39405;BME280;25121;51.090;17.038;2023-04-20T06:54:13;100490.09;;;11.43;59.52
39405;BME280;25121;51.090;17.038;2023-04-20T06:55:35;100484.00;;;11.49;59.43
39405;BME280;25121;51.090;17.038;2023-04-20T06:57:01;100474.91;;;11.58;59.26
39405;BME280;25121;51.090;17.038;2023-04-20T06:58:26;100488.66;;;11.72;59.16
39405;BME280;25121;51.090;17.038;2023-04-20T06:59:50;100473.19;;;11.74;59.10
39405;BME280;25121;51.090;17.038;2023-04-20T07:01:16;100484.94;;;11.89;58.98
39405;BME280;25121;51.090;17.038;2023-04-20T07:02:43;100474.81;;;11.91;58.77
39405;BME280;25121;51.090;17.038;2023-04-20T07:04:08;100476.47;;;12.00;58.64
39405;BME280;25121;51.090;17.038;2023-04-20T07:05:31;100484.81;;;12.14;58.44
39405;BME280;25121;51.090;17.038;2023-04-20T07:06:59;100482.06;;;12.22;58.27
39405;BME280;25121;51.090;17.038;2023-04-20T07:08:21;100476.00;;;12.28;58.19
39405;BME280;25121;51.090;17.038;2023-04-20T07:09:44;100485.84;;;12.44;57.82
39405;BME280;25121;51.090;17.038;2023-04-20T07:11:05;100476.19;;;12.49;57.55
39405;BME280;25121;51.090;17.038;2023-04-20T07:15:26;100475.50;;;12.56;57.34
39405;BME280;25121;51.090;17.038;2023-04-20T07:20:35;100491.22;;;12.67;57.42
39405;BME280;25121;51.090;17.038;2023-04-20T07:35:23;100478.94;;;13.10;56.67
39405;BME280;25121;51.090;17.038;2023-04-20T07:37:35;100494.03;;;13.20;56.59
39405;BME280;25121;51.090;17.038;2023-04-20T07:39:02;100496.19;;;13.24;56.24
39405;BME280;25121;51.090;17.038;2023-04-20T07:49:21;100505.75;;;13.50;56.03
39405;BME280;25121;51.090;17.038;2023-04-20T07:54:12;100510.59;;;13.54;55.99
39405;BME280;25121;51.090;17.038;2023-04-20T07:56:41;100498.38;;;13.44;55.77
39405;BME280;25121;51.090;17.038;2023-04-20T08:17:37;100513.06;;;13.94;55.23
39405;BME280;25121;51.090;17.038;2023-04-20T08:46:09;100508.34;;;14.90;53.14
39405;BME280;25121;51.090;17.038;2023-04-20T08:48:27;100499.97;;;14.85;53.17
39405;BME280;25121;51.090;17.038;2023-04-20T08:50:23;100501.13;;;14.97;53.05
39405;BME280;25121;51.090;17.038;2023-04-20T08:52:20;100496.69;;;15.11;52.85
39405;BME280;25121;51.090;17.038;2023-04-20T09:09:40;100504.53;;;17.07;49.45
39405;BME280;25121;51.090;17.038;2023-04-20T09:11:59;100494.53;;;17.07;48.86
39405;BME280;25121;51.090;17.038;2023-04-20T09:16:09;100506.22;;;17.08;49.16
39405;BME280;25121;51.090;17.038;2023-04-20T09:17:35;100493.25;;;17.03;48.97
39405;BME280;25121;51.090;17.038;2023-04-20T09:52:09;100483.56;;;23.26;39.46
39405;BME280;25121;51.090;17.038;2023-04-20T10:00:36;100494.19;;;31.45;29.13
39405;BME280;25121;51.090;17.038;2023-04-20T10:02:54;100488.97;;;32.54;27.91
39405;BME280;25121;51.090;17.038;2023-04-20T10:05:10;100491.50;;;33.85;26.13
39405;BME280;25121;51.090;17.038;2023-04-20T10:13:03;100514.38;;;35.32;23.47
39405;BME280;25121;51.090;17.038;2023-04-20T10:14:57;100498.66;;;33.15;24.71
39405;BME280;25121;51.090;17.038;2023-04-20T10:16:32;100503.09;;;32.57;24.83
39405;BME280;25121;51.090;17.038;2023-04-20T10:20:22;100495.22;;;30.40;26.25
39405;BME280;25121;51.090;17.038;2023-04-20T10:22:02;100500.50;;;29.70;26.54
39405;BME280;25121;51.090;17.038;2023-04-20T10:23:48;100497.59;;;28.87;27.21
39405;BME280;25121;51.090;17.038;2023-04-20T10:25:24;100505.91;;;28.27;27.67
39405;BME280;25121;51.090;17.038;2023-04-20T10:26:47;100502.50;;;27.60;28.33
39405;BME280;25121;51.090;17.038;2023-04-20T10:28:36;100508.00;;;26.73;29.16
39405;BME280;25121;51.090;17.038;2023-04-20T10:30:17;100500.53;;;26.00;29.99
39405;BME280;25121;51.090;17.038;2023-04-20T10:31:44;100507.97;;;25.57;30.48
39405;BME280;25121;51.090;17.038;2023-04-20T10:36:37;100500.50;;;24.17;32.48
39405;BME280;25121;51.090;17.038;2023-04-20T10:38:02;100486.16;;;23.88;32.59
39405;BME280;25121;51.090;17.038;2023-04-20T10:39:24;100495.91;;;23.79;33.04
39405;BME280;25121;51.090;17.038;2023-04-20T10:40:54;100484.84;;;23.74;33.16
39405;BME280;25121;51.090;17.038;2023-04-20T10:42:17;100478.44;;;23.85;32.98
39405;BME280;25121;51.090;17.038;2023-04-20T10:43:42;100476.81;;;23.89;32.93
39405;BME280;25121;51.090;17.038;2023-04-20T10:45:07;100483.13;;;23.90;33.21
39405;BME280;25121;51.090;17.038;2023-04-20T10:46:30;100478.50;;;23.90;33.38
39405;BME280;25121;51.090;17.038;2023-04-20T10:47:56;100481.78;;;23.92;33.55
39405;BME280;25121;51.090;17.038;2023-04-20T10:49:25;100472.59;;;23.81;33.41
39405;BME280;25121;51.090;17.038;2023-04-20T10:50:48;100483.59;;;23.81;33.60
39405;BME280;25121;51.090;17.038;2023-04-20T10:52:11;100483.75;;;23.75;33.44
39405;BME280;25121;51.090;17.038;2023-04-20T10:53:36;100477.84;;;23.66;33.67
39405;BME280;25121;51.090;17.038;2023-04-20T10:57:17;100463.44;;;23.37;34.11
39405;BME280;25121;51.090;17.038;2023-04-20T10:58:51;100475.66;;;23.29;34.14
39405;BME280;25121;51.090;17.038;2023-04-20T11:07:24;100457.56;;;23.11;34.08
39405;BME280;25121;51.090;17.038;2023-04-20T11:08:58;100459.47;;;23.11;34.22
39405;BME280;25121;51.090;17.038;2023-04-20T11:10:41;100465.63;;;23.18;34.79
39405;BME280;25121;51.090;17.038;2023-04-20T11:19:09;100465.59;;;22.55;35.10
39405;BME280;25121;51.090;17.038;2023-04-20T11:20:51;100451.63;;;22.40;35.17
39405;BME280;25121;51.090;17.038;2023-04-20T11:23:23;100456.38;;;22.04;36.14
39405;BME280;25121;51.090;17.038;2023-04-20T11:28:03;100447.38;;;21.21;36.65
39405;BME280;25121;51.090;17.038;2023-04-20T11:36:41;100445.56;;;20.01;38.89
39405;BME280;25121;51.090;17.038;2023-04-20T11:39:05;100443.53;;;19.78;39.38
39405;BME280;25121;51.090;17.038;2023-04-20T11:41:11;100443.34;;;19.54;39.29
39405;BME280;25121;51.090;17.038;2023-04-20T11:42:45;100427.13;;;19.41;39.88
39405;BME280;25121;51.090;17.038;2023-04-20T11:44:19;100435.59;;;19.33;39.99
39405;BME280;25121;51.090;17.038;2023-04-20T11:47:51;100426.56;;;19.14;40.48
39405;BME280;25121;51.090;17.038;2023-04-20T11:52:33;100427.56;;;18.94;41.01
39405;BME280;25121;51.090;17.038;2023-04-20T11:54:00;100434.22;;;18.99;41.02
39405;BME280;25121;51.090;17.038;2023-04-20T11:58:12;100425.03;;;18.93;41.68
39405;BME280;25121;51.090;17.038;2023-04-20T12:00:07;100431.00;;;18.83;42.01
39405;BME280;25121;51.090;17.038;2023-04-20T12:01:34;100417.22;;;18.78;42.02
39405;BME280;25121;51.090;17.038;2023-04-20T12:02:57;100425.78;;;18.82;41.90
39405;BME280;25121;51.090;17.038;2023-04-20T12:04:19;100418.88;;;18.79;42.08
39405;BME280;25121;51.090;17.038;2023-04-20T12:05:43;100417.00;;;18.73;42.27
39405;BME280;25121;51.090;17.038;2023-04-20T12:07:27;100412.81;;;18.77;42.22
39405;BME280;25121;51.090;17.038;2023-04-20T12:09:39;100422.22;;;19.06;42.12
39405;BME280;25121;51.090;17.038;2023-04-20T12:12:26;100427.53;;;19.20;42.21
39405;BME280;25121;51.090;17.038;2023-04-20T12:16:50;100412.59;;;19.04;42.14
39405;BME280;25121;51.090;17.038;2023-04-20T12:18:35;100405.75;;;18.94;42.07
39405;BME280;25121;51.090;17.038;2023-04-20T12:20:04;100402.06;;;18.89;42.13
39405;BME280;25121;51.090;17.038;2023-04-20T12:21:40;100410.34;;;19.01;41.92
39405;BME280;25121;51.090;17.038;2023-04-20T12:23:04;100410.25;;;19.07;42.09
39405;BME280;25121;51.090;17.038;2023-04-20T12:24:29;100395.59;;;19.08;42.20
39405;BME280;25121;51.090;17.038;2023-04-20T12:29:02;100403.31;;;19.73;42.07
39405;BME280;25121;51.090;17.038;2023-04-20T12:31:01;100399.06;;;19.96;41.66
39405;BME280;25121;51.090;17.038;2023-04-20T12:32:56;100388.09;;;19.84;41.48
39405;BME280;25121;51.090;17.038;2023-04-20T12:34:18;100399.97;;;19.90;41.43
39405;BME280;25121;51.090;17.038;2023-04-20T12:35:44;100377.97;;;19.73;41.37
39405;BME280;25121;51.090;17.038;2023-04-20T12:38:08;100379.75;;;19.61;41.40
39405;BME280;25121;51.090;17.038;2023-04-20T12:40:13;100379.47;;;19.69;41.49
39405;BME280;25121;51.090;17.038;2023-04-20T12:41:41;100382.81;;;19.71;42.10
39405;BME280;25121;51.090;17.038;2023-04-20T12:43:22;100377.81;;;19.68;42.14
39405;BME280;25121;51.090;17.038;2023-04-20T12:45:31;100388.16;;;19.59;42.53
39405;BME280;25121;51.090;17.038;2023-04-20T12:46:56;100379.22;;;19.52;42.24
39405;BME280;25121;51.090;17.038;2023-04-20T12:48:59;100381.47;;;19.55;41.93
39405;BME280;25121;51.090;17.038;2023-04-20T12:52:55;100370.00;;;19.53;41.42
39405;BME280;25121;51.090;17.038;2023-04-20T12:54:40;100379.00;;;19.72;41.48
39405;BME280;25121;51.090;17.038;2023-04-20T12:56:40;100372.50;;;19.73;41.80
39405;BME280;25121;51.090;17.038;2023-04-20T13:01:14;100364.50;;;19.90;40.92
39405;BME280;25121;51.090;17.038;2023-04-20T13:03:11;100376.91;;;20.04;40.39
39405;BME280;25121;51.090;17.038;2023-04-20T13:05:17;100371.41;;;19.92;40.33
39405;BME280;25121;51.090;17.038;2023-04-20T13:07:52;100369.31;;;19.76;40.97
39405;BME280;25121;51.090;17.038;2023-04-20T13:12:44;100367.31;;;19.46;41.45
39405;BME280;25121;51.090;17.038;2023-04-20T13:14:32;100366.94;;;19.24;41.47
39405;BME280;25121;51.090;17.038;2023-04-20T13:16:10;100353.16;;;19.19;41.86
39405;BME280;25121;51.090;17.038;2023-04-20T13:17:41;100366.06;;;19.30;41.90